createdAt,value
2018-03-15T00:01:06.390Z,32.57
2018-03-15T00:03:34.413Z,24.57
2018-03-15T00:06:01.875Z,24.07
2018-03-15T00:08:29.371Z,27.10
2018-03-15T00:10:56.812Z,26.43
2018-03-15T00:13:24.278Z,23.23
2018-03-15T00:15:51.754Z,33.23
2018-03-15T00:18:19.214Z,24.53
2018-03-15T00:20:46.675Z,23.80
2018-03-15T00:23:14.143Z,22.80
2018-03-15T00:25:41.605Z,28.50
2018-03-15T00:28:09.103Z,24.87
2018-03-15T00:30:36.559Z,25.17
2018-03-15T00:33:04.017Z,25.30
2018-03-15T00:35:31.494Z,24.03
2018-03-15T00:37:58.954Z,26.57
2018-03-15T00:40:26.427Z,23.53
2018-03-15T00:42:53.883Z,25.03
2018-03-15T00:45:21.352Z,25.27
2018-03-15T00:47:49.567Z,23.97
2018-03-15T00:50:17.035Z,25.17
2018-03-15T00:52:44.491Z,28.10
2018-03-15T00:55:11.955Z,24.47
2018-03-15T00:57:39.424Z,24.57
2018-03-15T01:00:07.662Z,24.63
2018-03-15T01:02:35.129Z,24.33
2018-03-15T01:05:02.591Z,22.50
2018-03-15T01:07:30.076Z,23.80
2018-03-15T01:09:57.543Z,23.47
2018-03-15T01:12:25.008Z,23.20
2018-03-15T01:14:52.464Z,23.43
2018-03-15T01:17:19.930Z,23.93
2018-03-15T01:19:47.383Z,22.17
2018-03-15T01:22:15.619Z,23.07
2018-03-15T01:24:43.076Z,21.20
2018-03-15T01:27:10.551Z,21.90
2018-03-15T01:29:38.015Z,23.37
2018-03-15T01:32:05.490Z,28.57
2018-03-15T01:34:33.708Z,21.83
2018-03-15T01:37:01.187Z,22.83
2018-03-15T01:39:28.654Z,22.20
2018-03-15T01:41:56.115Z,22.93
2018-03-15T01:44:23.580Z,23.30
2018-03-15T01:46:51.041Z,23.00
2018-03-15T01:49:18.506Z,24.10
2018-03-15T01:51:45.971Z,28.27
2018-03-15T01:54:13.445Z,24.93
2018-03-15T01:56:40.911Z,23.87
2018-03-15T01:59:08.375Z,26.23
2018-03-15T02:01:35.840Z,21.97
2018-03-15T02:04:03.315Z,26.27
2018-03-15T02:06:30.772Z,23.03
2018-03-15T02:08:58.242Z,25.67
2018-03-15T02:11:25.704Z,24.50
2018-03-15T02:13:53.167Z,27.40
2018-03-15T02:16:21.387Z,26.77
2018-03-15T02:18:48.844Z,23.37
2018-03-15T02:21:16.318Z,23.93
2018-03-15T02:23:44.539Z,29.07
2018-03-15T02:26:12.775Z,22.73
2018-03-15T02:28:40.235Z,24.30
2018-03-15T02:31:07.701Z,24.93
2018-03-15T02:33:35.160Z,25.33
2018-03-15T02:36:02.626Z,22.10
2018-03-15T02:38:30.082Z,26.53
2018-03-15T02:40:57.548Z,25.30
2018-03-15T02:43:25.007Z,24.20
2018-03-15T02:45:52.479Z,24.03
2018-03-15T02:48:19.931Z,25.73
2018-03-15T02:50:47.399Z,24.17
2018-03-15T02:53:14.867Z,19.50
2018-03-15T02:55:42.333Z,22.77
2018-03-15T02:58:09.805Z,23.07
2018-03-15T03:00:37.292Z,25.07
2018-03-15T03:03:04.780Z,25.57
2018-03-15T03:05:32.984Z,23.17
2018-03-15T03:08:00.458Z,27.47
2018-03-15T03:10:27.906Z,25.00
2018-03-15T03:12:55.379Z,26.00
2018-03-15T03:15:22.844Z,23.30
2018-03-15T03:17:50.307Z,26.27
2018-03-15T03:20:17.772Z,26.63
2018-03-15T03:22:45.259Z,24.97
2018-03-15T03:25:12.726Z,22.90
2018-03-15T03:27:40.200Z,20.57
2018-03-15T03:30:07.666Z,27.97
2018-03-15T03:32:35.123Z,23.07
2018-03-15T03:35:02.587Z,24.20
2018-03-15T03:37:30.054Z,24.30
2018-03-15T03:39:57.507Z,26.60
2018-03-15T03:42:24.999Z,25.17
2018-03-15T03:44:53.399Z,22.70
2018-03-15T03:47:20.845Z,26.07
2018-03-15T03:49:48.319Z,23.47
2018-03-15T03:52:15.775Z,27.27
2018-03-15T03:54:43.249Z,24.00
2018-03-15T03:57:10.710Z,23.07
2018-03-15T03:59:38.195Z,25.03
2018-03-15T04:02:05.651Z,25.67
2018-03-15T04:04:33.113Z,24.27
2018-03-15T04:07:00.573Z,25.30
2018-03-15T04:09:28.028Z,22.23
2018-03-15T04:11:55.490Z,25.03
2018-03-15T04:14:22.951Z,29.03
2018-03-15T04:16:50.421Z,26.50
2018-03-15T04:19:17.883Z,23.90
2018-03-15T04:21:45.338Z,21.97
2018-03-15T04:24:12.795Z,21.23
2018-03-15T04:26:40.275Z,25.87
2018-03-15T04:29:07.752Z,21.73
2018-03-15T04:31:35.219Z,22.30
2018-03-15T04:34:02.679Z,26.13
2018-03-15T04:36:30.159Z,23.93
2018-03-15T04:38:58.379Z,24.67
2018-03-15T04:41:25.874Z,24.20
2018-03-15T04:43:53.339Z,24.00
2018-03-15T04:46:20.819Z,26.20
2018-03-15T04:48:48.283Z,29.87
2018-03-15T04:51:15.751Z,27.87
2018-03-15T04:53:43.241Z,34.80
2018-03-15T04:56:10.713Z,29.20
2018-03-15T04:58:38.172Z,25.40
2018-03-15T05:01:05.628Z,40.27
2018-03-15T05:03:33.105Z,49.33
2018-03-15T05:06:00.564Z,42.53
2018-03-15T05:08:28.023Z,33.73
2018-03-15T05:10:55.474Z,27.20
2018-03-15T05:13:22.947Z,24.47
2018-03-15T05:15:50.403Z,24.10
2018-03-15T05:18:17.875Z,25.13
2018-03-15T05:20:45.328Z,22.63
2018-03-15T05:23:12.799Z,27.77
2018-03-15T05:25:40.276Z,27.07
2018-03-15T05:28:07.736Z,26.17
2018-03-15T05:30:35.183Z,25.43
2018-03-15T05:33:02.743Z,29.43
2018-03-15T05:35:30.209Z,26.10
2018-03-15T05:37:57.677Z,31.83
2018-03-15T05:40:25.138Z,26.90
2018-03-15T05:42:52.605Z,26.10
2018-03-15T05:45:20.068Z,27.43
2018-03-15T05:47:47.540Z,28.47
2018-03-15T05:50:15.759Z,24.57
2018-03-15T05:52:43.247Z,23.17
2018-03-15T05:55:10.715Z,24.53
2018-03-15T05:57:39.155Z,27.07
2018-03-15T06:00:06.619Z,27.97
2018-03-15T06:02:34.070Z,27.97
2018-03-15T06:05:01.549Z,24.17
2018-03-15T06:07:29.001Z,23.60
2018-03-15T06:09:56.474Z,23.60
2018-03-15T06:12:24.699Z,24.97
2018-03-15T06:14:52.231Z,21.80
2018-03-15T06:17:19.640Z,25.07
2018-03-15T06:19:47.098Z,22.53
2018-03-15T06:22:14.554Z,25.97
2018-03-15T06:24:42.025Z,24.47
2018-03-15T06:27:10.399Z,24.50
2018-03-15T06:29:37.842Z,24.80
2018-03-15T06:32:05.302Z,22.60
2018-03-15T06:34:32.758Z,24.03
2018-03-15T06:37:00.219Z,28.57
2018-03-15T06:39:27.666Z,22.47
2018-03-15T06:41:55.150Z,25.53
2018-03-15T06:44:22.602Z,23.73
2018-03-15T06:46:50.057Z,27.87
2018-03-15T06:49:18.281Z,22.20
2018-03-15T06:51:45.751Z,25.73
2018-03-15T06:54:13.226Z,20.33
2018-03-15T06:56:40.674Z,21.33
2018-03-15T06:59:08.139Z,21.50
2018-03-15T07:01:35.586Z,21.90
2018-03-15T07:04:03.821Z,22.63
2018-03-15T07:06:31.266Z,22.67
2018-03-15T07:08:59.498Z,22.70
2018-03-15T07:11:26.953Z,26.00
2018-03-15T07:13:54.422Z,21.80
2018-03-15T07:16:21.870Z,23.20
2018-03-15T07:18:49.342Z,22.83
2018-03-15T07:21:16.794Z,24.37
2018-03-15T07:23:44.265Z,21.20
2018-03-15T07:26:11.715Z,20.93
2018-03-15T07:28:39.196Z,19.80
2018-03-15T07:31:06.683Z,21.17
2018-03-15T07:33:34.143Z,18.53
2018-03-15T07:36:01.611Z,17.87
2018-03-15T07:38:29.075Z,22.37
2018-03-15T07:40:56.550Z,16.37
2018-03-15T07:43:24.023Z,18.63
2018-03-15T07:45:52.265Z,19.13
2018-03-15T07:48:19.727Z,17.97
2018-03-15T07:50:47.212Z,18.37
2018-03-15T07:53:14.659Z,16.90
2018-03-15T07:55:42.123Z,16.27
2018-03-15T07:58:09.582Z,19.00
2018-03-15T08:00:37.036Z,21.17
2018-03-15T08:03:04.506Z,17.40
2018-03-15T08:05:31.960Z,18.40
2018-03-15T08:07:59.423Z,17.77
2018-03-15T08:10:26.878Z,17.03
2018-03-15T08:12:54.344Z,18.60
2018-03-15T08:15:21.794Z,16.50
2018-03-15T08:17:49.271Z,18.70
2018-03-15T08:20:16.831Z,15.83
2018-03-15T08:22:44.299Z,19.17
2018-03-15T08:25:11.755Z,18.27
2018-03-15T08:27:39.635Z,16.67
2018-03-15T08:30:07.104Z,17.60
2018-03-15T08:32:34.824Z,23.13
2018-03-15T08:35:02.278Z,24.17
2018-03-15T08:37:29.730Z,23.67
2018-03-15T08:39:57.191Z,17.83
2018-03-15T08:42:24.648Z,21.80
2018-03-15T08:44:52.128Z,20.37
2018-03-15T08:47:19.575Z,28.80
2018-03-15T08:49:47.048Z,15.63
2018-03-15T08:52:15.263Z,16.80
2018-03-15T08:54:43.503Z,15.83
2018-03-15T08:57:10.955Z,13.97
2018-03-15T08:59:38.455Z,18.10
2018-03-15T09:02:05.903Z,16.93
2018-03-15T09:04:33.373Z,16.17
2018-03-15T09:07:00.828Z,14.90
2018-03-15T09:09:28.420Z,14.97
2018-03-15T09:11:55.908Z,14.67
2018-03-15T09:14:23.567Z,14.13
2018-03-15T09:16:51.071Z,15.23
2018-03-15T09:19:19.290Z,14.63
2018-03-15T09:21:46.981Z,15.40
2018-03-15T09:24:14.400Z,16.27
2018-03-15T09:26:41.878Z,15.17
2018-03-15T09:29:09.348Z,14.20
2018-03-15T09:31:36.835Z,15.33
2018-03-15T09:34:04.302Z,13.63
2018-03-15T09:36:32.555Z,16.27
2018-03-15T09:39:00.798Z,16.00
2018-03-15T09:41:28.275Z,15.43
2018-03-15T09:43:55.743Z,15.97
2018-03-15T09:46:23.212Z,14.47
2018-03-15T09:48:50.674Z,17.30
2018-03-15T09:51:18.269Z,13.47
2018-03-15T09:53:45.755Z,15.90
2018-03-15T09:56:13.239Z,14.47
2018-03-15T09:58:40.715Z,15.93
2018-03-15T10:01:08.193Z,16.63
2018-03-15T10:03:35.718Z,13.40
2018-03-15T10:06:03.174Z,16.37
2018-03-15T10:08:30.647Z,13.37
2018-03-15T10:10:58.136Z,12.97
2018-03-15T10:13:25.599Z,14.93
2018-03-15T10:15:53.056Z,12.73
2018-03-15T10:18:20.531Z,14.67
2018-03-15T10:20:48.786Z,13.10
2018-03-15T10:23:16.269Z,12.07
2018-03-15T10:25:43.724Z,13.57
2018-03-15T10:28:11.199Z,12.67
2018-03-15T10:30:38.655Z,17.03
2018-03-15T10:33:11.683Z,11.87
2018-03-15T10:35:39.144Z,12.23
2018-03-15T10:38:06.613Z,12.27
2018-03-15T10:40:34.075Z,14.97
2018-03-15T10:43:01.565Z,13.37
2018-03-15T10:45:29.015Z,12.30
2018-03-15T10:47:57.440Z,13.43
2018-03-15T10:50:25.246Z,12.73
2018-03-15T10:52:52.715Z,12.53
2018-03-15T10:55:20.190Z,12.43
2018-03-15T10:57:47.647Z,12.47
2018-03-15T11:00:15.124Z,11.33
2018-03-15T11:02:52.507Z,12.30
2018-03-15T11:05:25.520Z,12.77
2018-03-15T11:07:58.679Z,12.77
2018-03-15T11:10:26.360Z,11.13
2018-03-15T11:12:53.867Z,13.63
2018-03-15T11:15:21.311Z,13.20
2018-03-15T11:17:48.799Z,11.83
2018-03-15T11:20:16.271Z,10.13
2018-03-15T11:22:43.753Z,10.30
2018-03-15T11:25:11.225Z,11.43
2018-03-15T11:27:38.696Z,13.43
2018-03-15T11:30:06.178Z,10.73
2018-03-15T11:32:33.638Z,12.30
2018-03-15T11:35:01.103Z,11.77
2018-03-15T11:37:28.633Z,11.70
2018-03-15T11:39:56.059Z,10.27
2018-03-15T11:42:23.586Z,11.23
2018-03-15T11:44:51.067Z,11.17
2018-03-15T11:47:18.551Z,9.03
2018-03-15T11:49:46.027Z,11.43
2018-03-15T11:52:13.501Z,10.87
2018-03-15T11:54:40.984Z,8.90
2018-03-15T11:57:08.471Z,9.17
2018-03-15T11:59:35.935Z,9.93
2018-03-15T12:02:03.395Z,10.10
2018-03-15T12:04:30.883Z,14.30
2018-03-15T12:06:58.359Z,10.60
2018-03-15T12:09:25.839Z,12.10
2018-03-15T12:11:53.323Z,10.30
2018-03-15T12:14:20.796Z,12.57
2018-03-15T12:16:48.261Z,10.43
2018-03-15T12:19:16.504Z,11.73
2018-03-15T12:21:43.961Z,10.10
2018-03-15T12:24:11.444Z,8.90
2018-03-15T12:26:39.049Z,9.80
2018-03-15T12:29:06.520Z,10.70
2018-03-15T12:31:33.980Z,9.67
2018-03-15T12:34:01.445Z,13.07
2018-03-15T12:36:28.903Z,8.97
2018-03-15T12:38:56.378Z,8.30
2018-03-15T12:41:23.838Z,8.87
2018-03-15T12:43:51.295Z,9.50
2018-03-15T12:46:18.759Z,7.87
2018-03-15T12:48:46.220Z,6.60
2018-03-15T12:51:13.685Z,8.07
2018-03-15T12:53:41.144Z,6.17
2018-03-15T12:56:09.375Z,8.20
2018-03-15T12:58:36.831Z,7.43
2018-03-15T13:01:04.298Z,7.27
2018-03-15T13:03:31.786Z,8.17
2018-03-15T13:05:59.227Z,9.03
2018-03-15T13:08:26.682Z,9.23
2018-03-15T13:10:54.164Z,6.57
2018-03-15T13:13:22.418Z,8.87
2018-03-15T13:15:49.904Z,9.53
2018-03-15T13:18:17.367Z,7.70
2018-03-15T13:20:44.829Z,8.47
2018-03-15T13:23:12.338Z,8.03
2018-03-15T13:25:39.755Z,8.27
2018-03-15T13:28:07.239Z,8.07
2018-03-15T13:30:34.716Z,7.67
2018-03-15T13:33:02.184Z,9.20
2018-03-15T13:35:30.395Z,9.07
2018-03-15T13:37:57.891Z,8.13
2018-03-15T13:40:25.351Z,10.77
2018-03-15T13:42:53.648Z,9.00
2018-03-15T13:45:21.135Z,10.13
2018-03-15T13:47:48.602Z,8.97
2018-03-15T13:50:16.056Z,9.20
2018-03-15T13:52:43.538Z,10.47
2018-03-15T13:55:10.994Z,9.97
2018-03-15T13:57:38.518Z,10.23
2018-03-15T14:00:05.994Z,6.97
2018-03-15T14:02:33.487Z,9.50
2018-03-15T14:05:01.772Z,15.30
2018-03-15T14:07:29.237Z,15.50
2018-03-15T14:09:56.703Z,9.77
2018-03-15T14:12:24.941Z,6.60
2018-03-15T14:14:52.412Z,8.83
2018-03-15T14:17:19.893Z,7.60
2018-03-15T14:19:47.449Z,7.77
2018-03-15T14:22:14.904Z,8.73
2018-03-15T14:24:42.378Z,9.90
2018-03-15T14:27:09.852Z,14.93
2018-03-15T14:29:37.386Z,8.93
2018-03-15T14:32:04.866Z,6.67
2018-03-15T14:34:32.323Z,8.80
2018-03-15T14:36:59.804Z,13.73
2018-03-15T14:39:27.264Z,16.40
2018-03-15T14:41:54.741Z,8.73
2018-03-15T14:44:22.218Z,7.93
2018-03-15T14:46:49.679Z,7.80
2018-03-15T14:49:17.199Z,11.97
2018-03-15T14:51:44.692Z,8.03
2018-03-15T14:54:12.160Z,10.30
2018-03-15T14:56:39.711Z,8.17
2018-03-15T14:59:07.972Z,12.33
2018-03-15T15:01:35.452Z,11.47
2018-03-15T15:04:03.735Z,8.90
2018-03-15T15:06:31.206Z,9.80
2018-03-15T15:08:58.686Z,9.43
2018-03-15T15:11:26.177Z,10.37
2018-03-15T15:13:53.716Z,10.97
2018-03-15T15:16:21.191Z,10.77
2018-03-15T15:18:48.651Z,11.87
2018-03-15T15:21:16.916Z,10.80
2018-03-15T15:23:44.426Z,9.97
2018-03-15T15:26:11.886Z,10.00
2018-03-15T15:28:39.355Z,11.40
2018-03-15T15:31:06.999Z,11.23
2018-03-15T15:33:34.480Z,15.53
2018-03-15T15:36:01.976Z,13.10
2018-03-15T15:38:29.450Z,10.87
2018-03-15T15:40:56.943Z,11.10
2018-03-15T15:43:24.426Z,11.93
2018-03-15T15:45:51.916Z,11.70
2018-03-15T15:48:19.412Z,11.67
2018-03-15T15:50:46.876Z,11.03
2018-03-15T15:53:14.351Z,10.63
2018-03-15T15:55:42.147Z,10.93
2018-03-15T15:58:09.616Z,10.33
2018-03-15T16:00:37.093Z,10.77
2018-03-15T16:03:04.615Z,9.27
2018-03-15T16:05:32.079Z,16.47
2018-03-15T16:07:59.581Z,13.70
2018-03-15T16:10:27.047Z,10.00
2018-03-15T16:12:54.508Z,16.13
2018-03-15T16:15:22.010Z,10.33
2018-03-15T16:17:50.254Z,12.77
2018-03-15T16:20:17.880Z,12.37
2018-03-15T16:22:45.367Z,13.43
2018-03-15T16:25:12.833Z,11.23
2018-03-15T16:27:40.344Z,11.90
2018-03-15T16:30:07.822Z,10.50
2018-03-15T16:32:35.286Z,10.80
2018-03-15T16:35:02.922Z,15.43
2018-03-15T16:37:30.423Z,10.40
2018-03-15T16:39:57.879Z,10.10
2018-03-15T16:42:26.536Z,9.33
2018-03-15T16:44:54.014Z,11.77
2018-03-15T16:47:21.475Z,10.87
2018-03-15T16:49:48.955Z,10.47
2018-03-15T16:52:16.423Z,13.03
2018-03-15T16:54:43.923Z,8.07
2018-03-15T16:57:11.404Z,9.50
2018-03-15T16:59:38.868Z,9.83
2018-03-15T17:02:06.352Z,9.80
2018-03-15T17:04:33.807Z,12.33
2018-03-15T17:07:01.284Z,10.13
2018-03-15T17:09:28.748Z,9.67
2018-03-15T17:11:56.225Z,11.03
2018-03-15T17:14:23.703Z,10.93
2018-03-15T17:16:51.162Z,10.80
2018-03-15T17:19:18.626Z,10.23
2018-03-15T17:21:46.105Z,12.70
2018-03-15T17:24:14.340Z,10.00
2018-03-15T17:26:41.837Z,11.70
2018-03-15T17:29:09.324Z,11.03
2018-03-15T17:31:36.798Z,11.73
2018-03-15T17:34:04.264Z,12.10
2018-03-15T17:36:31.737Z,11.50
2018-03-15T17:38:59.212Z,11.47
2018-03-15T17:41:26.679Z,11.53
2018-03-15T17:43:54.918Z,14.27
2018-03-15T17:46:22.378Z,17.50
2018-03-15T17:48:49.852Z,13.33
2018-03-15T17:51:17.315Z,11.17
2018-03-15T17:53:45.467Z,13.23
2018-03-15T17:56:12.931Z,11.80
2018-03-15T17:58:40.402Z,10.87
2018-03-15T18:01:07.864Z,11.20
2018-03-15T18:06:10.071Z,11.80
2018-03-15T18:08:37.556Z,10.37
2018-03-15T18:11:05.039Z,14.60
2018-03-15T18:13:32.498Z,12.47
2018-03-15T18:15:59.964Z,17.17
2018-03-15T18:18:27.432Z,14.93
2018-03-15T18:20:54.904Z,11.47
2018-03-15T18:23:23.141Z,10.93
2018-03-15T18:25:50.617Z,12.47
2018-03-15T18:28:18.084Z,12.73
2018-03-15T18:30:45.569Z,12.37
2018-03-15T18:33:13.042Z,15.03
2018-03-15T18:35:40.516Z,12.13
2018-03-15T18:38:07.977Z,12.00
2018-03-15T18:40:35.451Z,12.57
2018-03-15T18:43:02.912Z,13.27
2018-03-15T18:45:30.390Z,14.20
2018-03-15T18:47:58.616Z,12.27
2018-03-15T18:50:26.123Z,20.73
2018-03-15T18:52:53.580Z,15.87
2018-03-15T18:55:21.039Z,12.00
2018-03-15T18:57:48.510Z,12.70
2018-03-15T19:00:15.970Z,14.93
2018-03-15T19:02:43.439Z,12.07
2018-03-15T19:05:10.904Z,13.53
2018-03-15T19:07:38.386Z,12.57
2018-03-15T19:10:05.834Z,11.87
2018-03-15T19:12:33.310Z,14.93
2018-03-15T19:15:00.805Z,11.93
2018-03-15T19:17:28.288Z,13.03
2018-03-15T19:19:55.771Z,11.67
2018-03-15T19:22:23.245Z,13.93
2018-03-15T19:24:50.707Z,11.23
2018-03-15T19:27:18.191Z,12.47
2018-03-15T19:29:45.659Z,18.03
2018-03-15T19:32:13.176Z,15.93
2018-03-15T19:34:40.628Z,13.13
2018-03-15T19:37:08.125Z,12.63
2018-03-15T19:39:35.628Z,12.73
2018-03-15T19:42:03.089Z,13.63
2018-03-15T19:44:30.575Z,12.90
2018-03-15T19:46:58.053Z,16.10
2018-03-15T19:49:26.283Z,12.27
2018-03-15T19:51:53.809Z,14.63
2018-03-15T19:54:21.272Z,15.57
2018-03-15T19:56:48.736Z,15.73
2018-03-15T19:59:16.225Z,12.30
2018-03-15T20:01:43.686Z,15.37
2018-03-15T20:04:11.161Z,14.60
2018-03-15T20:06:39.394Z,15.57
2018-03-15T20:09:06.873Z,14.07
2018-03-15T20:11:34.335Z,15.27
2018-03-15T20:14:01.840Z,13.10
2018-03-15T20:16:29.304Z,15.13
2018-03-15T20:19:17.437Z,13.30
2018-03-15T20:21:44.988Z,16.17
2018-03-15T20:24:18.028Z,14.53
2018-03-15T20:26:45.493Z,13.93
2018-03-15T20:29:12.980Z,15.17
2018-03-15T20:31:41.232Z,13.33
2018-03-15T20:34:11.142Z,14.57
2018-03-15T20:36:38.614Z,13.80
2018-03-15T20:39:12.475Z,12.43
2018-03-15T20:41:39.938Z,17.63
2018-03-15T20:44:08.226Z,14.70
2018-03-15T20:46:41.340Z,15.90
2018-03-15T20:49:13.385Z,12.67
2018-03-15T20:51:40.847Z,16.37
2018-03-15T20:54:08.314Z,13.80
2018-03-15T20:56:35.793Z,14.10
2018-03-15T20:59:03.263Z,14.87
2018-03-15T21:01:30.733Z,15.30
2018-03-15T21:03:58.202Z,13.47
2018-03-15T21:06:25.680Z,14.23
2018-03-15T21:08:53.153Z,16.57
2018-03-15T21:11:20.639Z,15.27
2018-03-15T21:13:48.135Z,13.13
2018-03-15T21:16:15.639Z,13.97
2018-03-15T21:18:44.611Z,15.17
2018-03-15T21:21:12.175Z,13.67
2018-03-15T21:23:39.651Z,13.47
2018-03-15T21:26:07.138Z,14.83
2018-03-15T21:28:34.647Z,14.87
2018-03-15T21:31:02.113Z,14.47
2018-03-15T21:33:29.611Z,13.67
2018-03-15T21:35:57.080Z,14.70
2018-03-15T21:38:24.577Z,14.40
2018-03-15T21:40:52.841Z,14.93
2018-03-15T21:43:20.309Z,13.97
2018-03-15T21:45:47.794Z,14.00
2018-03-15T21:48:15.284Z,13.80
2018-03-15T21:50:42.799Z,16.00
2018-03-15T21:53:11.055Z,14.73
2018-03-15T21:55:38.515Z,15.13
2018-03-15T21:58:05.993Z,13.17
2018-03-15T22:00:33.451Z,14.63
2018-03-15T22:03:01.258Z,14.27
2018-03-15T22:05:28.778Z,16.50
2018-03-15T22:07:57.049Z,14.30
2018-03-15T22:10:24.574Z,14.97
2018-03-15T22:12:52.102Z,15.10
2018-03-15T22:15:19.621Z,15.73
2018-03-15T22:17:47.130Z,16.43
2018-03-15T22:20:14.643Z,15.00
2018-03-15T22:22:42.173Z,14.23
2018-03-15T22:25:10.453Z,16.73
2018-03-15T22:27:37.963Z,15.20
2018-03-15T22:30:05.484Z,15.17
2018-03-15T22:32:33.763Z,14.57
2018-03-15T22:35:01.265Z,14.67
2018-03-15T22:37:28.766Z,13.97
2018-03-15T22:39:56.282Z,15.13
2018-03-15T22:42:23.794Z,15.83
2018-03-15T22:44:51.342Z,15.73
2018-03-15T22:47:18.843Z,14.90
2018-03-15T22:49:46.358Z,14.87
2018-03-15T22:52:13.860Z,15.60
2018-03-15T22:54:41.380Z,18.57
2018-03-15T22:57:08.882Z,15.90
2018-03-15T22:59:36.393Z,17.00
2018-03-15T23:02:03.918Z,15.90
2018-03-15T23:04:31.454Z,14.90
2018-03-15T23:06:58.945Z,15.87
2018-03-15T23:09:26.432Z,15.10
2018-03-15T23:11:53.935Z,16.00
2018-03-15T23:14:21.438Z,17.07
2018-03-15T23:16:48.943Z,16.07
2018-03-15T23:19:16.444Z,15.27
2018-03-15T23:21:43.958Z,16.53
2018-03-15T23:24:11.457Z,15.07
2018-03-15T23:26:38.973Z,15.47
2018-03-15T23:29:06.478Z,16.53
2018-03-15T23:31:33.988Z,16.20
2018-03-15T23:34:01.493Z,16.87
2018-03-15T23:36:29.010Z,16.23
2018-03-15T23:38:56.536Z,16.40
2018-03-15T23:41:24.047Z,17.70
2018-03-15T23:43:51.541Z,16.77
2018-03-15T23:46:19.053Z,20.13
2018-03-15T23:48:46.545Z,19.10
2018-03-15T23:51:14.041Z,15.67
2018-03-15T23:53:41.552Z,17.90
2018-03-15T23:56:09.048Z,17.43
2018-03-15T23:58:36.557Z,18.13
